sensor_id;sensor_type;location;lat;lon;timestamp;pressure;altitude;pressure_sealevel;temperature;humidity
81905;BME280;71370;-33.792;151.032;2023-07-13T00:00:59;102231.40;;;12.54;57.17
81905;BME280;71370;-33.792;151.032;2023-07-13T00:02:07;102225.05;;;12.55;57.07
81905;BME280;71370;-33.792;151.032;2023-07-13T00:03:14;102226.83;;;12.57;56.94
81905;BME280;71370;-33.792;151.032;2023-07-13T00:04:23;102218.71;;;12.57;56.84
81905;BME280;71370;-33.792;151.032;2023-07-13T00:05:31;102219.41;;;12.59;57.01
81905;BME280;71370;-33.792;151.032;2023-07-13T00:06:38;102218.17;;;12.59;56.48
81905;BME280;71370;-33.792;151.032;2023-07-13T00:07:45;102214.99;;;12.60;56.39
81905;BME280;71370;-33.792;151.032;2023-07-13T00:08:52;102213.59;;;12.61;56.46
81905;BME280;71370;-33.792;151.032;2023-07-13T00:09:59;102207.59;;;12.62;56.37
81905;BME280;71370;-33.792;151.032;2023-07-13T00:11:07;102206.02;;;12.63;56.34
81905;BME280;71370;-33.792;151.032;2023-07-13T00:12:32;102205.48;;;12.63;56.23
81905;BME280;71370;-33.792;151.032;2023-07-13T00:13:39;102211.65;;;12.64;56.27
81905;BME280;71370;-33.792;151.032;2023-07-13T00:14:47;102210.77;;;12.65;56.10
81905;BME280;71370;-33.792;151.032;2023-07-13T00:15:54;102205.13;;;12.64;55.82
81905;BME280;71370;-33.792;151.032;2023-07-13T00:17:02;102202.48;;;12.65;55.91
81905;BME280;71370;-33.792;151.032;2023-07-13T00:18:09;102203.88;;;12.65;56.09
81905;BME280;71370;-33.792;151.032;2023-07-13T00:19:19;102203.90;;;12.66;56.00
81905;BME280;71370;-33.792;151.032;2023-07-13T00:20:27;102203.71;;;12.69;56.00
81905;BME280;71370;-33.792;151.032;2023-07-13T00:21:34;102203.02;;;12.70;56.01
81905;BME280;71370;-33.792;151.032;2023-07-13T00:22:42;102201.77;;;12.71;55.70
81905;BME280;71370;-33.792;151.032;2023-07-13T00:23:49;102196.13;;;12.72;55.69
81905;BME280;71370;-33.792;151.032;2023-07-13T00:24:56;102189.95;;;12.73;55.46
81905;BME280;71370;-33.792;151.032;2023-07-13T00:26:04;102193.31;;;12.75;55.38
81905;BME280;71370;-33.792;151.032;2023-07-13T00:27:12;102190.14;;;12.76;55.40
81905;BME280;71370;-33.792;151.032;2023-07-13T00:28:19;102190.66;;;12.78;55.57
81905;BME280;71370;-33.792;151.032;2023-07-13T00:29:29;102190.14;;;12.80;55.59
81905;BME280;71370;-33.792;151.032;2023-07-13T00:30:36;102189.61;;;12.82;55.54
81905;BME280;71370;-33.792;151.032;2023-07-13T00:31:44;102184.50;;;12.84;55.35
81905;BME280;71370;-33.792;151.032;2023-07-13T00:32:52;102185.38;;;12.86;55.48
81905;BME280;71370;-33.792;151.032;2023-07-13T00:33:59;102181.84;;;12.89;55.39
81905;BME280;71370;-33.792;151.032;2023-07-13T00:35:06;102180.62;;;12.91;55.50
81905;BME280;71370;-33.792;151.032;2023-07-13T00:36:14;102176.37;;;12.94;55.41
81905;BME280;71370;-33.792;151.032;2023-07-13T00:37:21;102172.65;;;12.96;55.43
81905;BME280;71370;-33.792;151.032;2023-07-13T00:38:28;102172.66;;;12.98;55.34
81905;BME280;71370;-33.792;151.032;2023-07-13T00:39:36;102172.31;;;13.01;55.33
81905;BME280;71370;-33.792;151.032;2023-07-13T00:40:43;102173.19;;;13.04;55.13
81905;BME280;71370;-33.792;151.032;2023-07-13T00:41:51;102169.29;;;13.08;54.21
81905;BME280;71370;-33.792;151.032;2023-07-13T00:42:59;102159.94;;;13.10;54.27
81905;BME280;71370;-33.792;151.032;2023-07-13T00:44:19;102160.82;;;13.14;54.31
81905;BME280;71370;-33.792;151.032;2023-07-13T00:46:34;102155.50;;;13.21;54.31
81905;BME280;71370;-33.792;151.032;2023-07-13T00:47:43;102153.55;;;13.24;54.01
81905;BME280;71370;-33.792;151.032;2023-07-13T00:48:51;102148.79;;;13.26;53.92
81905;BME280;71370;-33.792;151.032;2023-07-13T00:50:00;102146.50;;;13.29;53.86
81905;BME280;71370;-33.792;151.032;2023-07-13T00:51:08;102145.98;;;13.32;53.93
81905;BME280;71370;-33.792;151.032;2023-07-13T00:52:16;102143.14;;;13.35;53.79
81905;BME280;71370;-33.792;151.032;2023-07-13T00:53:25;102143.67;;;13.38;53.55
81905;BME280;71370;-33.792;151.032;2023-07-13T00:54:38;102143.13;;;13.41;53.88
81905;BME280;71370;-33.792;151.032;2023-07-13T00:55:48;102140.11;;;13.45;53.83
81905;BME280;71370;-33.792;151.032;2023-07-13T00:56:59;102136.92;;;13.49;54.03
81905;BME280;71370;-33.792;151.032;2023-07-13T00:58:07;102132.50;;;13.52;54.08
81905;BME280;71370;-33.792;151.032;2023-07-13T00:59:15;102130.73;;;13.55;53.88
81905;BME280;71370;-33.792;151.032;2023-07-13T01:00:26;102128.77;;;13.58;54.04
81905;BME280;71370;-33.792;151.032;2023-07-13T01:01:33;102128.58;;;13.61;53.70
81905;BME280;71370;-33.792;151.032;2023-07-13T01:02:45;102122.02;;;13.63;53.58
81905;BME280;71370;-33.792;151.032;2023-07-13T01:03:53;102120.25;;;13.66;53.60
81905;BME280;71370;-33.792;151.032;2023-07-13T01:05:00;102121.64;;;13.69;53.53
81905;BME280;71370;-33.792;151.032;2023-07-13T01:06:08;102120.77;;;13.72;53.61
81905;BME280;71370;-33.792;151.032;2023-07-13T01:07:16;102118.98;;;13.74;53.25
81905;BME280;71370;-33.792;151.032;2023-07-13T01:08:25;102117.02;;;13.76;53.27
81905;BME280;71370;-33.792;151.032;2023-07-13T01:09:32;102113.84;;;13.77;53.26
81905;BME280;71370;-33.792;151.032;2023-07-13T01:10:39;102114.35;;;13.80;53.10
81905;BME280;71370;-33.792;151.032;2023-07-13T01:11:47;102112.05;;;13.83;52.92
81905;BME280;71370;-33.792;151.032;2023-07-13T01:12:54;102110.45;;;13.85;52.94
81905;BME280;71370;-33.792;151.032;2023-07-13T01:14:02;102105.84;;;13.88;53.11
81905;BME280;71370;-33.792;151.032;2023-07-13T01:16:46;102100.31;;;13.94;53.07
81905;BME280;71370;-33.792;151.032;2023-07-13T01:17:53;102105.07;;;13.97;52.88
81905;BME280;71370;-33.792;151.032;2023-07-13T01:19:02;102106.66;;;13.99;52.51
81905;BME280;71370;-33.792;151.032;2023-07-13T01:20:10;102114.05;;;14.02;52.68
81905;BME280;71370;-33.792;151.032;2023-07-13T01:21:18;102115.10;;;14.05;52.27
81905;BME280;71370;-33.792;151.032;2023-07-13T01:22:25;102115.63;;;14.07;52.12
81905;BME280;71370;-33.792;151.032;2023-07-13T01:23:33;102118.08;;;14.10;52.20
81905;BME280;71370;-33.792;151.032;2023-07-13T01:24:42;102119.13;;;14.12;51.76
81905;BME280;71370;-33.792;151.032;2023-07-13T01:25:50;102116.98;;;14.15;51.95
81905;BME280;71370;-33.792;151.032;2023-07-13T01:26:57;102117.68;;;14.18;51.81
81905;BME280;71370;-33.792;151.032;2023-07-13T01:28:06;102119.44;;;14.21;51.72
81905;BME280;71370;-33.792;151.032;2023-07-13T01:29:18;102115.00;;;14.23;51.33
81905;BME280;71370;-33.792;151.032;2023-07-13T01:30:25;102115.15;;;14.26;51.57
81905;BME280;71370;-33.792;151.032;2023-07-13T01:31:32;102114.95;;;14.29;51.32
81905;BME280;71370;-33.792;151.032;2023-07-13T01:32:39;102118.84;;;14.31;50.85
81905;BME280;71370;-33.792;151.032;2023-07-13T01:33:48;102117.73;;;14.34;51.20
81905;BME280;71370;-33.792;151.032;2023-07-13T01:34:55;102115.44;;;14.37;51.20
81905;BME280;71370;-33.792;151.032;2023-07-13T01:36:02;102115.23;;;14.40;51.25
81905;BME280;71370;-33.792;151.032;2023-07-13T01:37:10;102120.52;;;14.44;51.18
81905;BME280;71370;-33.792;151.032;2023-07-13T01:38:20;102118.89;;;14.47;51.18
81905;BME280;71370;-33.792;151.032;2023-07-13T01:39:28;102122.59;;;14.50;51.07
81905;BME280;71370;-33.792;151.032;2023-07-13T01:40:37;102122.02;;;14.54;51.22
81905;BME280;71370;-33.792;151.032;2023-07-13T01:41:44;102120.61;;;14.56;51.09
81905;BME280;71370;-33.792;151.032;2023-07-13T01:42:51;102124.33;;;14.60;50.99
81905;BME280;71370;-33.792;151.032;2023-07-13T01:43:58;102121.99;;;14.63;50.88
81905;BME280;71370;-33.792;151.032;2023-07-13T01:45:06;102119.33;;;14.66;50.77
81905;BME280;71370;-33.792;151.032;2023-07-13T01:46:13;102113.81;;;14.68;50.43
81905;BME280;71370;-33.792;151.032;2023-07-13T01:47:21;102116.79;;;14.71;50.31
81905;BME280;71370;-33.792;151.032;2023-07-13T01:48:28;102109.34;;;14.73;50.49
81905;BME280;71370;-33.792;151.032;2023-07-13T01:49:35;102105.23;;;14.76;50.61
81905;BME280;71370;-33.792;151.032;2023-07-13T01:50:44;102102.73;;;14.78;50.65
81905;BME280;71370;-33.792;151.032;2023-07-13T01:51:51;102097.23;;;14.81;50.16
81905;BME280;71370;-33.792;151.032;2023-07-13T01:52:58;102096.50;;;14.83;50.29
81905;BME280;71370;-33.792;151.032;2023-07-13T01:54:05;102096.30;;;14.84;50.38
81905;BME280;71370;-33.792;151.032;2023-07-13T01:55:12;102095.05;;;14.87;50.05
81905;BME280;71370;-33.792;151.032;2023-07-13T01:56:20;102090.95;;;14.89;50.30
81905;BME280;71370;-33.792;151.032;2023-07-13T01:57:27;102092.52;;;14.91;50.17
81905;BME280;71370;-33.792;151.032;2023-07-13T01:58:34;102085.77;;;14.93;50.13
81905;BME280;71370;-33.792;151.032;2023-07-13T01:59:41;102083.09;;;14.96;49.92
81905;BME280;71370;-33.792;151.032;2023-07-13T02:00:49;102077.76;;;14.98;49.92
81905;BME280;71370;-33.792;151.032;2023-07-13T02:01:57;102071.70;;;15.01;49.78
81905;BME280;71370;-33.792;151.032;2023-07-13T02:03:04;102069.91;;;15.04;49.75
81905;BME280;71370;-33.792;151.032;2023-07-13T02:04:12;102063.16;;;15.05;49.39
81905;BME280;71370;-33.792;151.032;2023-07-13T02:05:19;102063.32;;;15.07;49.31
81905;BME280;71370;-33.792;151.032;2023-07-13T02:06:26;102063.09;;;15.10;49.33
81905;BME280;71370;-33.792;151.032;2023-07-13T02:07:33;102062.36;;;15.12;49.36
81905;BME280;71370;-33.792;151.032;2023-07-13T02:08:41;102066.25;;;15.15;49.30
81905;BME280;71370;-33.792;151.032;2023-07-13T02:09:49;102063.55;;;15.17;49.56
81905;BME280;71370;-33.792;151.032;2023-07-13T02:10:56;102054.85;;;15.19;49.11
81905;BME280;71370;-33.792;151.032;2023-07-13T02:12:03;102054.45;;;15.23;49.02
81905;BME280;71370;-33.792;151.032;2023-07-13T02:13:10;102052.82;;;15.25;49.14
81905;BME280;71370;-33.792;151.032;2023-07-13T02:14:17;102050.86;;;15.27;49.22
81905;BME280;71370;-33.792;151.032;2023-07-13T02:15:24;102049.58;;;15.29;48.73
81905;BME280;71370;-33.792;151.032;2023-07-13T02:16:31;102047.63;;;15.31;48.99
81905;BME280;71370;-33.792;151.032;2023-07-13T02:17:39;102044.22;;;15.34;48.78
81905;BME280;71370;-33.792;151.032;2023-07-13T02:18:46;102043.31;;;15.36;48.66
81905;BME280;71370;-33.792;151.032;2023-07-13T02:19:53;102043.09;;;15.39;48.74
81905;BME280;71370;-33.792;151.032;2023-07-13T02:21:00;102038.30;;;15.40;48.52
81905;BME280;71370;-33.792;151.032;2023-07-13T02:22:09;102037.91;;;15.42;48.55
81905;BME280;71370;-33.792;151.032;2023-07-13T02:23:16;102035.40;;;15.44;48.50
81905;BME280;71370;-33.792;151.032;2023-07-13T02:24:23;102033.61;;;15.47;48.23
81905;BME280;71370;-33.792;151.032;2023-07-13T02:25:30;102032.33;;;15.49;48.32
81905;BME280;71370;-33.792;151.032;2023-07-13T02:26:37;102025.91;;;15.52;48.19
81905;BME280;71370;-33.792;151.032;2023-07-13T02:27:44;102023.93;;;15.53;47.95
81905;BME280;71370;-33.792;151.032;2023-07-13T02:28:51;102019.30;;;15.56;47.99
81905;BME280;71370;-33.792;151.032;2023-07-13T02:29:59;102014.66;;;15.57;48.09
81905;BME280;71370;-33.792;151.032;2023-07-13T02:31:12;102016.60;;;15.58;47.71
81905;BME280;71370;-33.792;151.032;2023-07-13T02:32:19;102015.70;;;15.60;47.63
81905;BME280;71370;-33.792;151.032;2023-07-13T02:33:26;102013.38;;;15.61;47.58
81905;BME280;71370;-33.792;151.032;2023-07-13T02:34:34;102011.39;;;15.63;47.56
81905;BME280;71370;-33.792;151.032;2023-07-13T02:35:41;102008.89;;;15.65;47.56
81905;BME280;71370;-33.792;151.032;2023-07-13T02:36:48;102007.80;;;15.67;47.38
81905;BME280;71370;-33.792;151.032;2023-07-13T02:37:56;102005.27;;;15.69;46.89
81905;BME280;71370;-33.792;151.032;2023-07-13T02:39:05;102000.13;;;15.70;47.12
81905;BME280;71370;-33.792;151.032;2023-07-13T02:40:12;101997.98;;;15.71;46.83
81905;BME280;71370;-33.792;151.032;2023-07-13T02:41:19;101993.16;;;15.72;46.66
81905;BME280;71370;-33.792;151.032;2023-07-13T02:42:26;101992.30;;;15.73;46.85
81905;BME280;71370;-33.792;151.032;2023-07-13T02:43:34;101989.42;;;15.75;46.83
81905;BME280;71370;-33.792;151.032;2023-07-13T02:44:41;101984.80;;;15.77;46.82
81905;BME280;71370;-33.792;151.032;2023-07-13T02:45:48;101987.08;;;15.79;46.53
81905;BME280;71370;-33.792;151.032;2023-07-13T02:46:55;101984.92;;;15.81;46.49
81905;BME280;71370;-33.792;151.032;2023-07-13T02:48:02;101981.16;;;15.83;46.22
81905;BME280;71370;-33.792;151.032;2023-07-13T02:49:09;101973.88;;;15.84;46.06
81905;BME280;71370;-33.792;151.032;2023-07-13T02:50:17;101975.27;;;15.86;45.97
81905;BME280;71370;-33.792;151.032;2023-07-13T02:51:24;101973.27;;;15.88;46.19
81905;BME280;71370;-33.792;151.032;2023-07-13T02:52:31;101975.38;;;15.91;46.11
81905;BME280;71370;-33.792;151.032;2023-07-13T02:53:38;101970.56;;;15.92;46.02
81905;BME280;71370;-33.792;151.032;2023-07-13T02:54:45;101971.94;;;15.94;45.77
81905;BME280;71370;-33.792;151.032;2023-07-13T02:55:52;101967.81;;;15.96;45.71
81905;BME280;71370;-33.792;151.032;2023-07-13T02:57:00;101964.42;;;15.99;45.49
81905;BME280;71370;-33.792;151.032;2023-07-13T02:58:07;101962.27;;;15.99;45.32
81905;BME280;71370;-33.792;151.032;2023-07-13T02:59:14;101953.05;;;16.00;44.79
81905;BME280;71370;-33.792;151.032;2023-07-13T03:00:21;101951.81;;;16.00;44.89
81905;BME280;71370;-33.792;151.032;2023-07-13T03:01:28;101947.17;;;16.01;45.15
81905;BME280;71370;-33.792;151.032;2023-07-13T03:02:35;101943.78;;;16.02;45.40
81905;BME280;71370;-33.792;151.032;2023-07-13T03:03:42;101948.20;;;16.03;45.57
81905;BME280;71370;-33.792;151.032;2023-07-13T03:04:50;101944.80;;;16.05;45.56
81905;BME280;71370;-33.792;151.032;2023-07-13T03:06:01;101940.70;;;16.06;45.60
81905;BME280;71370;-33.792;151.032;2023-07-13T03:07:09;101938.73;;;16.08;45.52
81905;BME280;71370;-33.792;151.032;2023-07-13T03:08:16;101937.10;;;16.09;45.50
81905;BME280;71370;-33.792;151.032;2023-07-13T03:09:25;101937.07;;;16.10;45.60
81905;BME280;71370;-33.792;151.032;2023-07-13T03:10:32;101936.68;;;16.13;45.74
81905;BME280;71370;-33.792;151.032;2023-07-13T03:11:39;101930.98;;;16.13;45.57
81905;BME280;71370;-33.792;151.032;2023-07-13T03:12:46;101929.70;;;16.16;45.36
81905;BME280;71370;-33.792;151.032;2023-07-13T03:13:54;101926.85;;;16.17;45.22
81905;BME280;71370;-33.792;151.032;2023-07-13T03:15:02;101924.34;;;16.19;45.19
81905;BME280;71370;-33.792;151.032;2023-07-13T03:16:10;101917.94;;;16.19;45.29
81905;BME280;71370;-33.792;151.032;2023-07-13T03:17:17;101915.98;;;16.20;45.46
81905;BME280;71370;-33.792;151.032;2023-07-13T03:18:27;101909.38;;;16.21;45.29
81905;BME280;71370;-33.792;151.032;2023-07-13T03:19:34;101909.54;;;16.23;45.30
81905;BME280;71370;-33.792;151.032;2023-07-13T03:20:41;101910.05;;;16.24;45.28
81905;BME280;71370;-33.792;151.032;2023-07-13T03:21:49;101908.61;;;16.24;44.54
81905;BME280;71370;-33.792;151.032;2023-07-13T03:22:56;101908.41;;;16.26;44.53
81905;BME280;71370;-33.792;151.032;2023-07-13T03:24:03;101905.04;;;16.26;44.27
81905;BME280;71370;-33.792;151.032;2023-07-13T03:25:10;101910.13;;;16.28;44.19
81905;BME280;71370;-33.792;151.032;2023-07-13T03:26:19;101904.99;;;16.28;43.80
81905;BME280;71370;-33.792;151.032;2023-07-13T03:27:26;101904.64;;;16.28;43.64
81905;BME280;71370;-33.792;151.032;2023-07-13T03:28:34;101905.52;;;16.30;43.38
81905;BME280;71370;-33.792;151.032;2023-07-13T03:29:41;101901.92;;;16.31;42.93
81905;BME280;71370;-33.792;151.032;2023-07-13T03:30:48;101899.61;;;16.32;43.05
81905;BME280;71370;-33.792;151.032;2023-07-13T03:31:55;101900.82;;;16.33;42.83
81905;BME280;71370;-33.792;151.032;2023-07-13T03:33:02;101898.13;;;16.34;42.94
81905;BME280;71370;-33.792;151.032;2023-07-13T03:34:09;101894.73;;;16.36;43.02
81905;BME280;71370;-33.792;151.032;2023-07-13T03:35:17;101892.38;;;16.38;43.23
81905;BME280;71370;-33.792;151.032;2023-07-13T03:36:27;101889.14;;;16.41;43.41
81905;BME280;71370;-33.792;151.032;2023-07-13T03:37:35;101892.81;;;16.43;42.94
81905;BME280;71370;-33.792;151.032;2023-07-13T03:38:50;101884.45;;;16.44;42.07
81905;BME280;71370;-33.792;151.032;2023-07-13T03:39:58;101884.27;;;16.45;41.94
81905;BME280;71370;-33.792;151.032;2023-07-13T03:41:05;101883.02;;;16.45;41.91
81905;BME280;71370;-33.792;151.032;2023-07-13T03:42:12;101887.59;;;16.47;41.95
81905;BME280;71370;-33.792;151.032;2023-07-13T03:43:19;101885.23;;;16.49;42.12
81905;BME280;71370;-33.792;151.032;2023-07-13T03:44:26;101888.94;;;16.51;42.01
81905;BME280;71370;-33.792;151.032;2023-07-13T03:45:34;101887.69;;;16.51;41.86
81905;BME280;71370;-33.792;151.032;2023-07-13T03:46:41;101889.08;;;16.53;41.75
81905;BME280;71370;-33.792;151.032;2023-07-13T03:47:48;101887.98;;;16.54;41.66
81905;BME280;71370;-33.792;151.032;2023-07-13T03:48:55;101889.19;;;16.55;41.53
81905;BME280;71370;-33.792;151.032;2023-07-13T03:50:02;101887.75;;;16.58;41.56
81905;BME280;71370;-33.792;151.032;2023-07-13T03:51:10;101891.09;;;16.59;41.11
81905;BME280;71370;-33.792;151.032;2023-07-13T03:52:19;101887.15;;;16.60;41.24
81905;BME280;71370;-33.792;151.032;2023-07-13T03:53:26;101890.48;;;16.63;41.50
81905;BME280;71370;-33.792;151.032;2023-07-13T03:54:34;101885.29;;;16.65;41.17
81905;BME280;71370;-33.792;151.032;2023-07-13T03:55:41;101885.27;;;16.66;41.13
81905;BME280;71370;-33.792;151.032;2023-07-13T03:56:48;101886.11;;;16.68;40.94
81905;BME280;71370;-33.792;151.032;2023-07-13T03:58:05;101881.98;;;16.71;40.97
81905;BME280;71370;-33.792;151.032;2023-07-13T03:59:26;101881.72;;;16.74;41.01
81905;BME280;71370;-33.792;151.032;2023-07-13T04:00:33;101885.94;;;16.77;40.99
81905;BME280;71370;-33.792;151.032;2023-07-13T04:01:40;101884.83;;;16.79;41.03
81905;BME280;71370;-33.792;151.032;2023-07-13T04:02:47;101891.35;;;16.81;40.90
81905;BME280;71370;-33.792;151.032;2023-07-13T04:03:55;101892.20;;;16.84;40.60
81905;BME280;71370;-33.792;151.032;2023-07-13T04:05:03;101890.92;;;16.86;40.66
81905;BME280;71370;-33.792;151.032;2023-07-13T04:06:25;101888.73;;;16.88;40.96
81905;BME280;71370;-33.792;151.032;2023-07-13T04:07:33;101890.11;;;16.90;40.56
81905;BME280;71370;-33.792;151.032;2023-07-13T04:08:40;101894.85;;;16.93;40.56
81905;BME280;71370;-33.792;151.032;2023-07-13T04:09:47;101896.58;;;16.96;40.41
81905;BME280;71370;-33.792;151.032;2023-07-13T04:10:55;101896.72;;;16.98;40.25
81905;BME280;71370;-33.792;151.032;2023-07-13T04:12:02;101900.75;;;17.00;40.02
81905;BME280;71370;-33.792;151.032;2023-07-13T04:13:10;101897.85;;;17.02;40.18
81905;BME280;71370;-33.792;151.032;2023-07-13T04:14:17;101901.35;;;17.05;40.00
81905;BME280;71370;-33.792;151.032;2023-07-13T04:15:24;101894.73;;;17.07;40.28
81905;BME280;71370;-33.792;151.032;2023-07-13T04:16:31;101893.42;;;17.10;40.11
81905;BME280;71370;-33.792;151.032;2023-07-13T04:17:38;101890.36;;;17.12;40.16
81905;BME280;71370;-33.792;151.032;2023-07-13T04:18:47;101887.63;;;17.15;40.24
81905;BME280;71370;-33.792;151.032;2023-07-13T04:19:54;101888.28;;;17.17;40.42
81905;BME280;71370;-33.792;151.032;2023-07-13T04:21:01;101886.65;;;17.19;40.02
81905;BME280;71370;-33.792;151.032;2023-07-13T04:22:08;101885.70;;;17.22;39.96
81905;BME280;71370;-33.792;151.032;2023-07-13T04:23:16;101881.03;;;17.24;39.82
81905;BME280;71370;-33.792;151.032;2023-07-13T04:24:24;101884.18;;;17.26;39.56
81905;BME280;71370;-33.792;151.032;2023-07-13T04:25:31;101885.56;;;17.28;39.46
81905;BME280;71370;-33.792;151.032;2023-07-13T04:26:38;101885.66;;;17.30;39.15
81905;BME280;71370;-33.792;151.032;2023-07-13T04:27:46;101884.55;;;17.33;39.18
81905;BME280;71370;-33.792;151.032;2023-07-13T04:28:53;101884.15;;;17.35;39.02
81905;BME280;71370;-33.792;151.032;2023-07-13T04:30:00;101883.95;;;17.36;38.92
81905;BME280;71370;-33.792;151.032;2023-07-13T04:31:07;101884.24;;;17.39;38.97
81905;BME280;71370;-33.792;151.032;2023-07-13T04:32:14;101885.27;;;17.41;39.04
81905;BME280;71370;-33.792;151.032;2023-07-13T04:33:23;101884.34;;;17.42;39.37
81905;BME280;71370;-33.792;151.032;2023-07-13T04:34:30;101886.79;;;17.43;39.35
81905;BME280;71370;-33.792;151.032;2023-07-13T04:35:37;101883.36;;;17.45;39.26
81905;BME280;71370;-33.792;151.032;2023-07-13T04:36:44;101879.98;;;17.45;38.86
81905;BME280;71370;-33.792;151.032;2023-07-13T04:37:51;101874.65;;;17.45;38.67
81905;BME280;71370;-33.792;151.032;2023-07-13T04:38:58;101877.64;;;17.47;38.72
81905;BME280;71370;-33.792;151.032;2023-07-13T04:40:06;101877.79;;;17.48;38.54
81905;BME280;71370;-33.792;151.032;2023-07-13T04:41:18;101872.95;;;17.49;38.34
81905;BME280;71370;-33.792;151.032;2023-07-13T04:42:25;101873.99;;;17.50;38.36
81905;BME280;71370;-33.792;151.032;2023-07-13T04:43:33;101873.42;;;17.52;38.46
81905;BME280;71370;-33.792;151.032;2023-07-13T04:44:40;101869.48;;;17.53;38.83
81905;BME280;71370;-33.792;151.032;2023-07-13T04:45:48;101870.86;;;17.55;38.53
81905;BME280;71370;-33.792;151.032;2023-07-13T04:46:55;101873.16;;;17.55;38.52
81905;BME280;71370;-33.792;151.032;2023-07-13T04:48:03;101872.42;;;17.57;38.49
81905;BME280;71370;-33.792;151.032;2023-07-13T04:49:10;101874.55;;;17.57;38.38
81905;BME280;71370;-33.792;151.032;2023-07-13T04:50:17;101878.05;;;17.59;38.59
81905;BME280;71370;-33.792;151.032;2023-07-13T04:51:29;101878.41;;;17.59;38.41
81905;BME280;71370;-33.792;151.032;2023-07-13T04:52:37;101875.04;;;17.59;38.21
81905;BME280;71370;-33.792;151.032;2023-07-13T04:53:44;101867.25;;;17.58;38.33
81905;BME280;71370;-33.792;151.032;2023-07-13T04:54:51;101867.10;;;17.56;38.26
81905;BME280;71370;-33.792;151.032;2023-07-13T04:55:59;101867.32;;;17.55;38.19
81905;BME280;71370;-33.792;151.032;2023-07-13T04:57:06;101860.95;;;17.53;38.13
81905;BME280;71370;-33.792;151.032;2023-07-13T04:58:13;101858.33;;;17.51;38.45
81905;BME280;71370;-33.792;151.032;2023-07-13T04:59:20;101859.94;;;17.51;38.44
81905;BME280;71370;-33.792;151.032;2023-07-13T05:00:29;101857.82;;;17.50;38.63
81905;BME280;71370;-33.792;151.032;2023-07-13T05:01:36;101858.91;;;17.50;38.70
81905;BME280;71370;-33.792;151.032;2023-07-13T05:02:46;101859.27;;;17.49;38.89
81905;BME280;71370;-33.792;151.032;2023-07-13T05:03:53;101858.21;;;17.48;38.90
81905;BME280;71370;-33.792;151.032;2023-07-13T05:05:04;101855.55;;;17.48;38.71
81905;BME280;71370;-33.792;151.032;2023-07-13T05:06:11;101854.15;;;17.47;38.82
81905;BME280;71370;-33.792;151.032;2023-07-13T05:07:21;101854.70;;;17.47;39.21
81905;BME280;71370;-33.792;151.032;2023-07-13T05:08:28;101850.80;;;17.47;39.04
81905;BME280;71370;-33.792;151.032;2023-07-13T05:09:36;101850.09;;;17.46;39.28
81905;BME280;71370;-33.792;151.032;2023-07-13T05:10:43;101847.62;;;17.45;39.54
81905;BME280;71370;-33.792;151.032;2023-07-13T05:11:50;101843.20;;;17.44;39.39
81905;BME280;71370;-33.792;151.032;2023-07-13T05:12:58;101842.48;;;17.45;39.35
81905;BME280;71370;-33.792;151.032;2023-07-13T05:14:05;101839.09;;;17.45;38.86
81905;BME280;71370;-33.792;151.032;2023-07-13T05:15:13;101837.14;;;17.45;38.75
81905;BME280;71370;-33.792;151.032;2023-07-13T05:16:20;101839.42;;;17.46;38.73
81905;BME280;71370;-33.792;151.032;2023-07-13T05:17:27;101839.23;;;17.47;38.91
81905;BME280;71370;-33.792;151.032;2023-07-13T05:18:35;101836.77;;;17.46;38.69
81905;BME280;71370;-33.792;151.032;2023-07-13T05:19:43;101842.26;;;17.47;39.18
81905;BME280;71370;-33.792;151.032;2023-07-13T05:22:07;101841.88;;;17.48;39.40
81905;BME280;71370;-33.792;151.032;2023-07-13T05:23:15;101840.26;;;17.49;39.46
81905;BME280;71370;-33.792;151.032;2023-07-13T05:24:22;101836.33;;;17.49;39.38
81905;BME280;71370;-33.792;151.032;2023-07-13T05:25:30;101838.77;;;17.51;39.59
81905;BME280;71370;-33.792;151.032;2023-07-13T05:26:37;101841.42;;;17.51;39.21
81905;BME280;71370;-33.792;151.032;2023-07-13T05:27:45;101835.20;;;17.51;39.30
81905;BME280;71370;-33.792;151.032;2023-07-13T05:28:53;101831.10;;;17.52;39.36
81905;BME280;71370;-33.792;151.032;2023-07-13T05:30:02;101837.82;;;17.54;39.48
81905;BME280;71370;-33.792;151.032;2023-07-13T05:31:10;101835.85;;;17.54;39.47
81905;BME280;71370;-33.792;151.032;2023-07-13T05:32:18;101832.98;;;17.55;39.57
81905;BME280;71370;-33.792;151.032;2023-07-13T05:33:25;101835.43;;;17.57;39.61
81905;BME280;71370;-33.792;151.032;2023-07-13T05:34:32;101837.00;;;17.58;39.65
81905;BME280;71370;-33.792;151.032;2023-07-13T05:35:40;101833.05;;;17.59;39.86
81905;BME280;71370;-33.792;151.032;2023-07-13T05:36:47;101836.94;;;17.60;40.06
81905;BME280;71370;-33.792;151.032;2023-07-13T05:37:54;101836.55;;;17.62;40.05
81905;BME280;71370;-33.792;151.032;2023-07-13T05:39:03;101835.11;;;17.62;39.89
81905;BME280;71370;-33.792;151.032;2023-07-13T05:40:11;101833.13;;;17.63;40.09
81905;BME280;71370;-33.792;151.032;2023-07-13T05:41:19;101834.84;;;17.66;40.29
81905;BME280;71370;-33.792;151.032;2023-07-13T05:42:26;101836.09;;;17.66;40.60
81905;BME280;71370;-33.792;151.032;2023-07-13T05:43:34;101837.14;;;17.67;40.41
81905;BME280;71370;-33.792;151.032;2023-07-13T05:44:41;101836.92;;;17.68;40.55
81905;BME280;71370;-33.792;151.032;2023-07-13T05:45:50;101840.46;;;17.69;40.85